TAF KCHO
KCHO 090531Z 0906/1006 VRB03KT P6SM SKC FM091300 VRB03KT P6SM BKN250 FM092000 VRB03KT P6SM BKN150=
METAR KCHO
WC KCHO
WS KCHO
WV KCHO